createdAt,value
2023-02-08T00:01:23.312Z,18.10
2023-02-08T00:03:52.294Z,16.07
2023-02-08T00:06:21.518Z,16.03
2023-02-08T00:08:49.731Z,17.20
2023-02-08T00:11:18.260Z,16.10
2023-02-08T00:13:48.239Z,14.50
2023-02-08T00:16:18.352Z,15.90
2023-02-08T00:18:46.804Z,15.37
2023-02-08T00:21:17.760Z,15.07
2023-02-08T00:23:46.720Z,14.03
2023-02-08T00:26:15.821Z,13.87
2023-02-08T00:28:44.476Z,13.70
2023-02-08T00:31:14.499Z,14.60
2023-02-08T00:33:42.785Z,12.53
2023-02-08T00:36:13.150Z,13.33
2023-02-08T00:38:41.487Z,13.80
2023-02-08T00:41:10.429Z,13.87
2023-02-08T00:43:38.701Z,14.17
2023-02-08T00:46:08.175Z,13.43
2023-02-08T00:48:37.915Z,13.73
2023-02-08T00:51:08.811Z,13.57
2023-02-08T00:53:39.790Z,13.73
2023-02-08T00:56:09.924Z,14.30
2023-02-08T00:58:38.483Z,13.13
2023-02-08T01:01:08.252Z,14.60
2023-02-08T01:03:40.224Z,12.70
2023-02-08T01:06:11.040Z,12.97
2023-02-08T01:08:39.310Z,15.20
2023-02-08T01:11:10.147Z,14.60
2023-02-08T01:13:40.236Z,13.93
2023-02-08T01:16:13.454Z,13.33
2023-02-08T01:18:44.994Z,13.97
2023-02-08T01:21:15.573Z,13.60
2023-02-08T01:23:44.706Z,11.20
2023-02-08T01:26:14.471Z,13.33
2023-02-08T01:28:43.390Z,14.30
2023-02-08T01:31:14.134Z,12.60
2023-02-08T01:33:43.950Z,12.70
2023-02-08T01:36:12.929Z,12.53
2023-02-08T01:38:41.307Z,12.73
2023-02-08T01:41:16.270Z,12.83
2023-02-08T01:44:02.650Z,12.27
2023-02-08T01:46:31.932Z,13.67
2023-02-08T01:49:05.806Z,11.00
2023-02-08T01:51:36.815Z,12.27
2023-02-08T01:54:08.205Z,12.40
2023-02-08T01:56:39.350Z,12.07
2023-02-08T01:59:11.651Z,11.60
2023-02-08T02:01:41.041Z,12.17
2023-02-08T02:04:10.727Z,11.43
2023-02-08T02:06:44.187Z,13.33
2023-02-08T02:09:20.323Z,11.80
2023-02-08T02:11:49.521Z,10.80
2023-02-08T02:14:17.825Z,11.73
2023-02-08T02:16:46.308Z,11.30
2023-02-08T02:19:25.289Z,11.40
2023-02-08T02:22:03.828Z,12.73
2023-02-08T02:25:00.169Z,11.77
2023-02-08T02:27:41.773Z,12.30
2023-02-08T02:30:35.341Z,11.20
2023-02-08T02:33:28.989Z,11.20
2023-02-08T02:36:02.211Z,11.90
2023-02-08T02:38:42.906Z,11.97
2023-02-08T02:41:41.392Z,10.53
2023-02-08T02:44:19.406Z,11.17
2023-02-08T02:46:53.854Z,11.07
2023-02-08T02:49:28.726Z,11.43
2023-02-08T02:52:02.035Z,9.23
2023-02-08T02:54:35.958Z,10.87
2023-02-08T02:57:07.758Z,10.00
2023-02-08T02:59:45.341Z,10.40
2023-02-08T03:02:14.581Z,10.90
2023-02-08T03:04:54.301Z,9.83
2023-02-08T03:07:48.239Z,9.50
2023-02-08T03:10:34.805Z,9.57
2023-02-08T03:13:08.889Z,10.43
2023-02-08T03:15:51.263Z,10.10
2023-02-08T03:18:30.542Z,9.53
2023-02-08T03:21:05.214Z,8.63
2023-02-08T03:23:39.867Z,9.17
2023-02-08T03:26:17.492Z,9.27
2023-02-08T03:28:56.701Z,7.67
2023-02-08T03:31:30.436Z,8.47
2023-02-08T03:34:03.870Z,7.97
2023-02-08T03:36:39.058Z,7.57
2023-02-08T03:39:12.441Z,8.80
2023-02-08T03:41:46.243Z,7.03
2023-02-08T03:44:20.589Z,7.97
2023-02-08T03:46:55.862Z,7.43
2023-02-08T03:49:28.361Z,7.10
2023-02-08T03:52:01.449Z,7.00
2023-02-08T03:54:34.628Z,6.83
2023-02-08T03:57:08.759Z,6.97
2023-02-08T03:59:44.120Z,6.07
2023-02-08T04:02:16.785Z,6.50
2023-02-08T04:04:48.316Z,6.83
2023-02-08T04:07:20.479Z,6.63
2023-02-08T04:09:48.778Z,6.67
2023-02-08T04:12:17.348Z,6.73
2023-02-08T04:14:45.633Z,6.50
2023-02-08T04:17:14.526Z,6.37
2023-02-08T04:19:43.076Z,7.13
2023-02-08T04:22:11.666Z,6.53
2023-02-08T04:24:41.172Z,7.30
2023-02-08T04:27:10.012Z,6.10
2023-02-08T04:29:38.498Z,6.90
2023-02-08T04:32:11.645Z,6.07
2023-02-08T04:34:40.113Z,6.23
2023-02-08T04:37:09.457Z,7.07
2023-02-08T04:39:37.716Z,7.77
2023-02-08T04:42:07.862Z,7.07
2023-02-08T04:44:36.136Z,7.00
2023-02-08T04:47:04.984Z,7.53
2023-02-08T04:49:33.397Z,7.93
2023-02-08T04:52:02.176Z,8.40
2023-02-08T04:54:30.761Z,7.43
2023-02-08T04:56:59.442Z,6.90
2023-02-08T04:59:29.288Z,8.20
2023-02-08T05:01:57.866Z,8.17
2023-02-08T05:04:26.032Z,8.47
2023-02-08T05:06:54.607Z,9.03
2023-02-08T05:09:23.353Z,9.80
2023-02-08T05:11:51.973Z,9.47
2023-02-08T05:14:20.346Z,9.40
2023-02-08T05:16:50.296Z,8.50
2023-02-08T05:19:18.540Z,10.20
2023-02-08T05:21:47.017Z,10.00
2023-02-08T05:24:18.540Z,9.73
2023-02-08T05:26:47.059Z,8.43
2023-02-08T05:29:15.423Z,11.30
2023-02-08T05:31:43.950Z,9.33
2023-02-08T05:34:13.796Z,9.53
2023-02-08T05:36:42.801Z,9.87
2023-02-08T05:39:11.110Z,9.50
2023-02-08T05:41:39.745Z,11.57
2023-02-08T05:44:08.046Z,10.97
2023-02-08T05:46:38.281Z,10.77
2023-02-08T05:49:07.024Z,9.50
2023-02-08T05:51:36.954Z,9.30
2023-02-08T05:54:05.251Z,11.70
2023-02-08T05:56:34.748Z,10.97
2023-02-08T05:59:03.524Z,10.97
2023-02-08T06:01:32.413Z,9.87
2023-02-08T06:04:01.512Z,10.20
2023-02-08T06:06:30.603Z,10.73
2023-02-08T06:09:00.299Z,12.03
2023-02-08T06:11:29.053Z,11.70
2023-02-08T06:13:57.408Z,11.80
2023-02-08T06:16:26.073Z,11.40
2023-02-08T06:18:54.320Z,11.30
2023-02-08T06:21:24.487Z,11.20
2023-02-08T06:23:52.979Z,11.87
2023-02-08T06:26:23.092Z,12.87
2023-02-08T06:28:51.423Z,10.33
2023-02-08T06:31:19.853Z,11.53
2023-02-08T06:33:48.098Z,11.93
2023-02-08T06:36:16.864Z,12.03
2023-02-08T06:38:45.588Z,11.47
2023-02-08T06:41:14.306Z,11.70
2023-02-08T06:43:43.783Z,11.13
2023-02-08T06:46:12.389Z,11.70
2023-02-08T06:48:40.647Z,10.43
2023-02-08T06:51:09.493Z,11.13
2023-02-08T06:53:37.833Z,10.80
2023-02-08T06:56:07.392Z,10.37
2023-02-08T06:58:35.722Z,10.50
2023-02-08T07:01:05.907Z,12.03
2023-02-08T07:03:34.508Z,10.90
2023-02-08T07:06:05.152Z,11.40
2023-02-08T07:08:34.553Z,10.80
2023-02-08T07:11:08.011Z,10.87
2023-02-08T07:13:36.680Z,11.03
2023-02-08T07:16:07.415Z,9.97
2023-02-08T07:18:36.720Z,10.23
2023-02-08T07:21:05.946Z,11.33
2023-02-08T07:23:34.637Z,9.70
2023-02-08T07:26:05.230Z,10.03
2023-02-08T07:28:33.649Z,12.20
2023-02-08T07:31:08.345Z,10.47
2023-02-08T07:33:37.340Z,11.47
2023-02-08T07:36:07.684Z,9.60
2023-02-08T07:38:36.228Z,11.57
2023-02-08T07:41:18.085Z,10.60
2023-02-08T07:43:46.569Z,9.53
2023-02-08T07:46:17.888Z,10.87
2023-02-08T07:48:46.532Z,10.87
2023-02-08T07:51:14.956Z,10.10
2023-02-08T07:53:43.411Z,10.23
2023-02-08T07:56:12.300Z,10.47
2023-02-08T07:58:41.659Z,9.97
2023-02-08T08:01:21.504Z,11.37
2023-02-08T08:03:53.003Z,11.27
2023-02-08T08:06:23.287Z,12.37
2023-02-08T08:08:52.157Z,12.03
2023-02-08T08:11:22.301Z,12.23
2023-02-08T08:13:50.648Z,11.43
2023-02-08T08:16:19.641Z,11.17
2023-02-08T08:18:48.519Z,13.07
2023-02-08T08:21:18.518Z,11.87
2023-02-08T08:23:46.992Z,12.03
2023-02-08T08:26:16.753Z,11.53
2023-02-08T08:28:46.745Z,12.43
2023-02-08T08:31:17.139Z,11.93
2023-02-08T08:33:45.609Z,12.00
2023-02-08T08:36:16.419Z,13.47
2023-02-08T08:38:46.202Z,12.73
2023-02-08T08:41:18.012Z,12.33
2023-02-08T08:43:46.642Z,12.63
2023-02-08T08:46:16.586Z,12.93
2023-02-08T08:48:45.563Z,12.27
2023-02-08T08:51:15.087Z,13.63
2023-02-08T08:53:43.457Z,13.37
2023-02-08T08:56:13.337Z,13.70
2023-02-08T08:58:43.356Z,13.10
2023-02-08T09:01:13.408Z,13.50
2023-02-08T09:03:42.002Z,13.67
2023-02-08T09:06:10.494Z,13.50
2023-02-08T09:08:38.843Z,16.33
2023-02-08T09:11:08.292Z,15.53
2023-02-08T09:13:38.556Z,14.60
2023-02-08T09:16:11.194Z,14.80
2023-02-08T09:18:39.669Z,13.20
2023-02-08T09:21:09.239Z,14.20
2023-02-08T09:23:37.844Z,14.83
2023-02-08T09:26:07.592Z,14.73
2023-02-08T09:28:37.548Z,14.60
2023-02-08T09:31:09.793Z,14.53
2023-02-08T09:33:38.478Z,13.53
2023-02-08T09:36:08.591Z,14.10
2023-02-08T09:38:37.728Z,15.63
2023-02-08T09:41:22.125Z,15.63
2023-02-08T09:44:01.474Z,13.97
2023-02-08T09:46:33.504Z,15.67
2023-02-08T09:49:05.993Z,14.97
2023-02-08T09:51:39.095Z,16.03
2023-02-08T09:54:09.802Z,14.13
2023-02-08T09:56:41.247Z,14.53
2023-02-08T09:59:16.360Z,14.33
2023-02-08T10:01:46.108Z,15.30
2023-02-08T10:04:21.271Z,15.50
2023-02-08T10:06:50.279Z,14.27
2023-02-08T10:09:22.815Z,15.27
2023-02-08T10:11:58.388Z,14.60
2023-02-08T10:14:41.031Z,15.80
2023-02-08T10:17:26.408Z,14.70
2023-02-08T10:20:10.790Z,13.60
2023-02-08T10:22:51.907Z,13.53
2023-02-08T10:25:37.405Z,15.63
2023-02-08T10:28:25.312Z,15.27
2023-02-08T10:31:00.414Z,14.70
2023-02-08T10:33:38.589Z,14.53
2023-02-08T10:36:14.634Z,14.10
2023-02-08T10:38:46.845Z,14.63
2023-02-08T10:41:21.742Z,14.80
2023-02-08T10:43:56.755Z,13.30
2023-02-08T10:46:32.917Z,13.97
2023-02-08T10:49:08.264Z,12.53
2023-02-08T10:51:37.134Z,14.50
2023-02-08T10:54:06.226Z,12.47
2023-02-08T10:56:47.462Z,14.17
2023-02-08T10:59:20.255Z,15.17
2023-02-08T11:01:51.228Z,14.10
2023-02-08T11:04:20.380Z,13.53
2023-02-08T11:06:50.684Z,14.00
2023-02-08T11:09:29.163Z,12.60
2023-02-08T11:11:59.497Z,14.10
2023-02-08T11:14:45.664Z,14.20
2023-02-08T11:17:29.541Z,13.83
2023-02-08T11:20:00.319Z,13.33
2023-02-08T11:22:31.422Z,13.13
2023-02-08T11:25:01.925Z,12.47
2023-02-08T11:27:35.630Z,12.23
2023-02-08T11:30:23.661Z,12.07
2023-02-08T11:33:23.367Z,13.27
2023-02-08T11:36:14.717Z,12.73
2023-02-08T11:38:44.201Z,11.50
2023-02-08T11:41:19.108Z,11.03
2023-02-08T11:44:00.355Z,12.07
2023-02-08T11:46:31.841Z,11.93
2023-02-08T11:49:01.552Z,12.73
2023-02-08T11:51:34.482Z,11.20
2023-02-08T11:54:03.682Z,11.77
2023-02-08T11:56:34.271Z,12.97
2023-02-08T11:59:18.370Z,13.20
2023-02-08T12:01:46.856Z,11.23
2023-02-08T12:04:19.184Z,12.13
2023-02-08T12:07:05.369Z,11.43
2023-02-08T12:10:19.770Z,12.00
2023-02-08T12:13:05.083Z,10.67
2023-02-08T12:15:57.411Z,11.73
2023-02-08T12:18:44.885Z,12.67
2023-02-08T12:21:19.080Z,14.00
2023-02-08T12:24:04.010Z,12.20
2023-02-08T12:26:47.503Z,12.10
2023-02-08T12:29:45.714Z,14.23
2023-02-08T12:32:34.798Z,14.27
2023-02-08T12:35:39.038Z,12.80
2023-02-08T12:38:36.212Z,12.10
2023-02-08T12:41:13.584Z,13.83
2023-02-08T12:44:03.399Z,13.53
2023-02-08T12:46:51.236Z,13.67
2023-02-08T12:49:33.233Z,13.07
2023-02-08T12:52:11.376Z,13.43
2023-02-08T12:54:46.148Z,14.83
2023-02-08T12:57:18.105Z,14.00
2023-02-08T12:59:49.296Z,14.17
2023-02-08T13:02:21.279Z,15.37
2023-02-08T13:04:54.017Z,13.43
2023-02-08T13:07:28.719Z,16.07
2023-02-08T13:10:04.112Z,14.60
2023-02-08T13:12:36.149Z,16.50
2023-02-08T13:15:15.952Z,15.20
2023-02-08T13:17:55.390Z,15.87
2023-02-08T13:20:39.730Z,14.20
2023-02-08T13:23:19.179Z,14.43
2023-02-08T13:25:50.778Z,15.47
2023-02-08T13:28:22.206Z,15.13
2023-02-08T13:31:01.221Z,14.43
2023-02-08T13:33:55.606Z,15.50
2023-02-08T13:36:33.508Z,16.23
2023-02-08T13:39:04.796Z,13.90
2023-02-08T13:41:36.724Z,15.80
2023-02-08T13:44:08.013Z,16.07
2023-02-08T13:46:39.056Z,15.27
2023-02-08T13:49:08.034Z,16.07
2023-02-08T13:52:03.624Z,14.03
2023-02-08T13:54:32.375Z,15.40
2023-02-08T13:57:02.122Z,15.00
2023-02-08T13:59:41.904Z,13.93
2023-02-08T14:02:35.099Z,13.80
2023-02-08T14:05:36.591Z,14.37
2023-02-08T14:08:08.764Z,12.40
2023-02-08T14:10:43.300Z,12.10
2023-02-08T14:13:29.001Z,11.13
2023-02-08T14:16:30.427Z,12.20
2023-02-08T14:19:01.136Z,13.57
2023-02-08T14:21:34.873Z,12.17
2023-02-08T14:24:06.088Z,12.07
2023-02-08T14:26:36.634Z,12.70
2023-02-08T14:29:08.579Z,13.37
2023-02-08T14:31:42.944Z,12.50
2023-02-08T14:34:25.436Z,12.80
2023-02-08T14:37:03.279Z,12.57
2023-02-08T14:39:34.609Z,12.37
2023-02-08T14:42:07.258Z,12.00
2023-02-08T14:45:05.634Z,11.23
2023-02-08T14:48:01.765Z,12.73
2023-02-08T14:50:34.800Z,13.67
2023-02-08T14:53:08.350Z,11.00
2023-02-08T14:55:45.716Z,11.00
2023-02-08T14:58:18.985Z,13.03
2023-02-08T15:00:53.588Z,13.13
2023-02-08T15:03:23.094Z,11.73
2023-02-08T15:06:19.739Z,13.23
2023-02-08T15:08:52.479Z,12.37
2023-02-08T15:11:27.513Z,11.93
2023-02-08T15:14:00.947Z,13.73
2023-02-08T15:16:35.880Z,13.30
2023-02-08T15:19:06.954Z,13.13
2023-02-08T15:21:37.276Z,13.10
2023-02-08T15:24:14.047Z,12.77
2023-02-08T15:26:46.454Z,13.17
2023-02-08T15:29:24.629Z,11.57
2023-02-08T15:31:57.010Z,14.23
2023-02-08T15:34:27.456Z,13.17
2023-02-08T15:36:57.654Z,13.20
2023-02-08T15:39:35.518Z,13.53
2023-02-08T15:42:05.461Z,12.40
2023-02-08T15:44:35.497Z,10.90
2023-02-08T15:47:10.773Z,13.93
2023-02-08T15:49:42.376Z,11.87
2023-02-08T15:52:18.297Z,12.80
2023-02-08T15:54:47.673Z,12.13
2023-02-08T15:57:27.959Z,12.83
2023-02-08T15:59:57.356Z,14.47
2023-02-08T16:02:31.085Z,13.00
2023-02-08T16:05:01.293Z,13.73
2023-02-08T16:07:34.873Z,12.70
2023-02-08T16:10:04.908Z,12.80
2023-02-08T16:12:33.710Z,12.03
2023-02-08T16:15:02.192Z,12.30
2023-02-08T16:17:39.225Z,12.17
2023-02-08T16:20:29.153Z,14.53
2023-02-08T16:23:00.448Z,13.53
2023-02-08T16:25:44.132Z,12.43
2023-02-08T16:28:28.726Z,12.87
2023-02-08T16:30:59.325Z,14.13
2023-02-08T16:33:30.151Z,13.80
2023-02-08T16:36:02.113Z,14.33
2023-02-08T16:38:32.436Z,14.20
2023-02-08T16:41:12.276Z,14.83
2023-02-08T16:43:43.931Z,16.03
2023-02-08T16:46:22.396Z,13.70
2023-02-08T16:48:54.596Z,14.17
2023-02-08T16:51:26.438Z,15.20
2023-02-08T16:53:57.643Z,14.43
2023-02-08T16:56:26.438Z,14.70
2023-02-08T16:58:54.777Z,14.80
2023-02-08T17:01:25.137Z,13.13
2023-02-08T17:03:55.102Z,16.90
2023-02-08T17:06:29.417Z,15.67
2023-02-08T17:08:58.055Z,14.97
2023-02-08T17:11:27.227Z,17.77
2023-02-08T17:13:55.681Z,17.93
2023-02-08T17:16:27.065Z,21.07
2023-02-08T17:18:57.253Z,20.80
2023-02-08T17:21:26.084Z,21.20
2023-02-08T17:23:54.450Z,21.73
2023-02-08T17:26:27.345Z,19.77
2023-02-08T17:28:56.270Z,19.27
2023-02-08T17:31:25.130Z,20.27
2023-02-08T17:33:53.423Z,18.73
2023-02-08T17:36:23.427Z,18.63
2023-02-08T17:38:52.395Z,17.83
2023-02-08T17:41:22.522Z,17.73
2023-02-08T17:43:52.215Z,16.73
2023-02-08T17:46:23.251Z,18.53
2023-02-08T17:48:52.243Z,15.13
2023-02-08T17:51:24.181Z,17.83
2023-02-08T17:54:07.638Z,18.20
2023-02-08T17:56:36.435Z,17.23
2023-02-08T17:59:05.500Z,16.40
2023-02-08T18:01:35.090Z,17.80
2023-02-08T18:04:03.529Z,17.60
2023-02-08T18:06:33.446Z,16.00
2023-02-08T18:09:01.946Z,17.73
2023-02-08T18:11:30.872Z,17.40
2023-02-08T18:14:00.199Z,17.30
2023-02-08T18:16:29.332Z,16.70
2023-02-08T18:18:59.347Z,17.47
2023-02-08T18:21:30.155Z,17.13
2023-02-08T18:24:02.073Z,15.80
2023-02-08T18:26:33.570Z,16.07
2023-02-08T18:29:03.267Z,18.37
2023-02-08T18:31:32.415Z,16.73
2023-02-08T18:34:01.563Z,18.43
2023-02-08T18:36:30.211Z,16.10
2023-02-08T18:38:59.867Z,18.50
2023-02-08T18:41:30.342Z,17.80
2023-02-08T18:43:59.700Z,17.73
2023-02-08T18:46:31.067Z,18.67
2023-02-08T18:48:59.466Z,18.73
2023-02-08T18:51:30.005Z,19.70
2023-02-08T18:53:59.913Z,18.23
2023-02-08T18:56:28.902Z,18.60
2023-02-08T18:59:00.700Z,18.63
2023-02-08T19:01:29.582Z,17.80
2023-02-08T19:03:58.784Z,19.17
2023-02-08T19:06:29.419Z,19.67
2023-02-08T19:09:01.640Z,20.07
2023-02-08T19:11:32.274Z,17.47
2023-02-08T19:14:02.638Z,17.83
2023-02-08T19:16:32.634Z,18.43
2023-02-08T19:19:01.350Z,17.77
2023-02-08T19:21:31.181Z,17.83
2023-02-08T19:24:02.182Z,17.40
2023-02-08T19:26:32.935Z,17.30
2023-02-08T19:29:03.495Z,20.43
2023-02-08T19:31:32.472Z,33.87
2023-02-08T19:34:02.700Z,45.03
2023-02-08T19:36:33.418Z,54.77
2023-02-08T19:39:03.661Z,50.70
2023-02-08T19:41:34.376Z,49.97
2023-02-08T19:44:05.458Z,46.80
2023-02-08T19:46:38.798Z,46.40
2023-02-08T19:49:08.464Z,42.63
2023-02-08T19:51:37.381Z,42.53
2023-02-08T19:54:10.302Z,39.43
2023-02-08T19:56:38.803Z,37.53
2023-02-08T19:59:11.610Z,38.57
2023-02-08T20:01:40.346Z,37.57
2023-02-08T20:04:08.625Z,33.67
2023-02-08T20:06:39.557Z,36.27
2023-02-08T20:09:09.688Z,32.60
2023-02-08T20:11:54.797Z,30.63
2023-02-08T20:14:25.551Z,30.43
2023-02-08T20:16:54.425Z,30.80
2023-02-08T20:19:22.822Z,29.53
2023-02-08T20:21:51.816Z,27.77
2023-02-08T20:24:23.944Z,28.43
2023-02-08T20:26:52.460Z,27.40
2023-02-08T20:29:20.920Z,28.70
2023-02-08T20:31:52.097Z,24.70
2023-02-08T20:34:20.561Z,27.03
2023-02-08T20:37:05.796Z,26.70
2023-02-08T20:39:37.159Z,25.43
2023-02-08T20:42:06.611Z,24.80
2023-02-08T20:44:35.211Z,27.30
2023-02-08T20:47:04.226Z,25.50
2023-02-08T20:49:33.043Z,27.03
2023-02-08T20:52:01.698Z,24.87
2023-02-08T20:54:30.224Z,25.17
2023-02-08T20:57:00.574Z,25.63
2023-02-08T20:59:28.901Z,26.50
2023-02-08T21:01:57.462Z,26.97
2023-02-08T21:04:27.147Z,25.77
2023-02-08T21:06:55.804Z,26.43
2023-02-08T21:09:24.537Z,26.77
2023-02-08T21:11:53.033Z,25.70
2023-02-08T21:14:23.617Z,26.40
2023-02-08T21:16:56.252Z,29.27
2023-02-08T21:19:24.645Z,25.10
2023-02-08T21:21:53.749Z,26.53
2023-02-08T21:24:23.963Z,25.70
2023-02-08T21:26:52.700Z,24.17
2023-02-08T21:29:22.565Z,25.80
2023-02-08T21:31:54.183Z,25.90
2023-02-08T21:34:23.782Z,25.30
2023-02-08T21:36:52.665Z,24.40
2023-02-08T21:39:20.960Z,24.97
2023-02-08T21:41:49.486Z,23.00
2023-02-08T21:44:22.784Z,24.30
2023-02-08T21:46:51.308Z,22.33
2023-02-08T21:49:37.160Z,24.83
2023-02-08T21:52:23.492Z,22.00
2023-02-08T21:54:53.776Z,24.70
2023-02-08T21:57:24.704Z,25.13
2023-02-08T21:59:57.350Z,27.87
2023-02-08T22:02:28.688Z,25.97
2023-02-08T22:05:16.541Z,27.60
2023-02-08T22:07:46.879Z,26.70
2023-02-08T22:10:18.615Z,26.07
2023-02-08T22:12:47.593Z,23.43
2023-02-08T22:15:19.223Z,24.90
2023-02-08T22:17:48.037Z,26.10
2023-02-08T22:20:16.853Z,24.63
2023-02-08T22:22:45.553Z,26.80
2023-02-08T22:25:14.103Z,25.87
2023-02-08T22:27:42.660Z,27.57
2023-02-08T22:30:14.287Z,29.80
2023-02-08T22:32:48.231Z,29.77
2023-02-08T22:35:18.420Z,31.73
2023-02-08T22:37:46.931Z,30.97
2023-02-08T22:40:15.312Z,30.07
2023-02-08T22:42:44.278Z,30.47
2023-02-08T22:45:13.409Z,28.97
2023-02-08T22:47:45.216Z,30.27
2023-02-08T22:50:14.923Z,31.10
2023-02-08T22:52:43.446Z,28.67
2023-02-08T22:55:12.396Z,29.80
2023-02-08T22:57:43.617Z,28.67
2023-02-08T23:00:15.983Z,29.40
2023-02-08T23:02:46.030Z,30.07
2023-02-08T23:05:14.630Z,28.27
2023-02-08T23:07:43.298Z,27.87
2023-02-08T23:10:12.492Z,28.17
2023-02-08T23:12:41.166Z,26.67
2023-02-08T23:15:11.755Z,25.87
2023-02-08T23:17:40.199Z,27.47
2023-02-08T23:20:11.536Z,24.87
2023-02-08T23:22:40.102Z,24.07
2023-02-08T23:25:08.820Z,25.83
2023-02-08T23:27:38.071Z,24.13
2023-02-08T23:30:09.499Z,23.63
2023-02-08T23:32:38.342Z,24.60
2023-02-08T23:35:07.519Z,22.20
2023-02-08T23:37:37.771Z,25.57
2023-02-08T23:40:07.197Z,22.80
2023-02-08T23:42:35.740Z,23.20
2023-02-08T23:45:04.372Z,22.40
2023-02-08T23:47:33.161Z,22.83
2023-02-08T23:50:01.603Z,24.90
2023-02-08T23:52:30.178Z,23.37
2023-02-08T23:54:59.992Z,23.27
2023-02-08T23:57:32.794Z,21.67
